Time;durP1;ratioP1;P1;durP2;ratioP2;P2;SDS_P1;SDS_P2;PMS_P1;PMS_P2;Temp;Humidity;BMP_temperature;BMP_pressure;BME280_temperature;BME280_humidity;BME280_pressure;Samples;Min_cycle;Max_cycle;Signal;HPM_P1;HPM_P2
2023/05/25 00:02:05;;;;;;;;;;;;;;;8.66;72.75;96813.66;5084663;28;19957;-77
2023/05/25 00:04:33;;;;;;;;;;;;;;;8.66;72.68;96816.25;5067304;28;19947;-77
2023/05/25 00:06:59;;;;;;;;;;;;;;;8.66;73.09;96823.31;5067309;28;19954;-77
2023/05/25 00:09:25;;;;;;;;;;;;;;;8.64;73.48;96820.88;5085930;28;19940;-77
2023/05/25 00:11:51;;;;;;;;;;;;;;;8.63;73.59;96816.66;5084008;28;19938;-77
2023/05/25 00:14:17;;;;;;;;;;;;;;;8.62;74.32;96816.84;5084579;28;20135;-77
2023/05/25 00:16:44;;;;;;;;;;;;;;;8.62;74.13;96819.47;5067173;28;19961;-81
2023/05/25 00:19:10;;;;;;;;;;;;;;;8.60;74.38;96819.66;5085191;28;20133;-72
2023/05/25 00:21:39;;;;;;;;;;;;;;;8.60;74.55;96824.88;5083763;28;19995;-72
2023/05/25 00:24:05;;;;;;;;;;;;;;;8.59;74.76;96825.06;5066931;28;19946;-72
2023/05/25 00:26:31;;;;;;;;;;;;;;;8.58;75.97;96819.03;5083653;28;19945;-73
2023/05/25 00:28:59;;;;;;;;;;;;;;;8.54;74.30;96810.78;5085547;28;20221;-72
2023/05/25 00:31:25;;;;;;;;;;;;;;;8.51;74.69;96810.38;5084637;28;19950;-71
2023/05/25 00:33:51;;;;;;;;;;;;;;;8.50;76.36;96820.03;5084715;28;19937;-77
2023/05/25 00:36:17;;;;;;;;;;;;;;;8.50;74.43;96809.59;5066853;28;20019;-81
2023/05/25 00:38:43;;;;;;;;;;;;;;;8.50;75.49;96817.44;5084284;28;20077;-72
2023/05/25 00:41:08;;;;;;;;;;;;;;;8.49;76.29;96817.63;5067492;28;19945;-72
2023/05/25 00:43:34;;;;;;;;;;;;;;;8.48;76.04;96813.38;5084508;28;19941;-72
2023/05/25 00:46:01;;;;;;;;;;;;;;;8.46;74.44;96803.13;5085313;28;19939;-72
2023/05/25 00:48:27;;;;;;;;;;;;;;;8.46;75.54;96810.97;5083317;28;19951;-72
2023/05/25 00:50:56;;;;;;;;;;;;;;;8.46;75.18;96815.38;5084796;28;19946;-72
2023/05/25 00:53:22;;;;;;;;;;;;;;;8.46;76.44;96816.22;5084356;28;19943;-72
2023/05/25 00:55:50;;;;;;;;;;;;;;;8.47;75.97;96815.19;5083840;28;19943;-72
2023/05/25 00:58:19;;;;;;;;;;;;;;;8.47;75.90;96817.00;5084265;28;19935;-73
2023/05/25 01:00:48;;;;;;;;;;;;;;;8.47;76.17;96799.50;5083212;28;19936;-72
2023/05/25 01:03:20;;;;;;;;;;;;;;;8.49;74.71;96810.56;5083093;28;20255;-72
2023/05/25 01:05:47;;;;;;;;;;;;;;;8.50;76.73;96808.75;5083718;28;19938;-72
2023/05/25 01:08:15;;;;;;;;;;;;;;;8.54;75.47;96802.94;5084751;28;20234;-72
2023/05/25 01:10:48;;;;;;;;;;;;;;;8.59;75.90;96801.53;5083637;28;20224;-75
2023/05/25 01:13:15;;;;;;;;;;;;;;;8.61;75.64;96797.75;5084140;28;20136;-76
2023/05/25 01:15:41;;;;;;;;;;;;;;;8.67;76.12;96804.00;5066238;28;19944;-77
2023/05/25 01:18:08;;;;;;;;;;;;;;;8.70;75.86;96804.41;5065972;28;19963;-78
2023/05/25 01:20:34;;;;;;;;;;;;;;;8.74;75.19;96797.78;5066996;28;19952;-76
2023/05/25 01:23:11;;;;;;;;;;;;;;;8.78;75.69;96800.81;5083627;28;20129;-77
2023/05/25 01:25:39;;;;;;;;;;;;;;;8.80;74.36;96787.53;5083755;28;20134;-76
2023/05/25 01:28:05;;;;;;;;;;;;;;;8.81;75.56;96797.00;5066110;28;19942;-76
2023/05/25 01:30:31;;;;;;;;;;;;;;;8.82;76.36;96804.66;5082865;28;20007;-78
2023/05/25 01:32:58;;;;;;;;;;;;;;;8.85;74.46;96793.00;5084668;28;19938;-72
2023/05/25 01:35:24;;;;;;;;;;;;;;;8.85;75.50;96796.41;5083580;28;19964;-72
2023/05/25 01:37:50;;;;;;;;;;;;;;;8.87;75.43;96798.81;5084783;28;20236;-72
2023/05/25 01:40:16;;;;;;;;;;;;;;;8.86;75.56;96799.81;5083870;28;19938;-73
2023/05/25 01:42:42;;;;;;;;;;;;;;;8.87;76.59;96806.66;5082653;28;19979;-72
2023/05/25 01:45:09;;;;;;;;;;;;;;;8.86;76.72;96802.44;5084403;28;19943;-72
2023/05/25 01:47:55;;;;;;;;;;;;;;;8.86;76.62;96798.03;5082733;28;19937;-73
2023/05/25 01:50:21;;;;;;;;;;;;;;;8.84;76.84;96797.41;5084646;28;20223;-78
2023/05/25 01:53:02;;;;;;;;;;;;;;;8.81;77.05;96805.63;5083795;28;19938;-78
2023/05/25 01:55:31;;;;;;;;;;;;;;;8.78;75.81;96800.81;5082953;28;19996;-78
2023/05/25 01:57:58;;;;;;;;;;;;;;;8.74;76.09;96803.00;5066741;28;19946;-77
2023/05/25 02:00:26;;;;;;;;;;;;;;;8.69;76.49;96805.44;5084506;28;19945;-78
2023/05/25 02:02:52;;;;;;;;;;;;;;;8.66;77.40;96810.22;5085626;28;19936;-77
2023/05/25 02:05:18;;;;;;;;;;;;;;;8.61;76.56;96805.59;5088376;28;19939;-78
2023/05/25 02:07:44;;;;;;;;;;;;;;;8.59;77.82;96812.84;5086413;28;20242;-77
2023/05/25 02:10:10;;;;;;;;;;;;;;;8.58;76.19;96795.53;5086327;28;19971;-75
2023/05/25 02:12:36;;;;;;;;;;;;;;;8.55;77.12;96795.94;5087914;28;19938;-75
2023/05/25 02:15:02;;;;;;;;;;;;;;;8.53;76.78;96784.84;5087830;28;19943;-75
2023/05/25 02:17:29;;;;;;;;;;;;;;;8.49;78.25;96787.06;5087210;28;19957;-75
2023/05/25 02:19:55;;;;;;;;;;;;;;;8.46;78.23;96784.00;5087073;28;20012;-75
2023/05/25 02:22:21;;;;;;;;;;;;;;;8.43;78.69;96787.03;5085870;28;20286;-75
2023/05/25 02:24:47;;;;;;;;;;;;;;;8.37;77.37;96785.97;5087206;28;19944;-72
2023/05/25 02:27:13;;;;;;;;;;;;;;;8.32;78.28;96785.75;5087061;28;19940;-72
2023/05/25 02:29:39;;;;;;;;;;;;;;;8.29;78.28;96792.19;5085893;28;19941;-72
2023/05/25 02:32:05;;;;;;;;;;;;;;;8.24;77.49;96789.34;5087036;28;19926;-72
2023/05/25 02:34:32;;;;;;;;;;;;;;;8.20;79.75;96793.34;5087668;28;20003;-73
2023/05/25 02:37:00;;;;;;;;;;;;;;;8.17;80.25;96790.28;5086899;28;19948;-72
2023/05/25 02:39:26;;;;;;;;;;;;;;;8.12;77.59;96783.84;5086812;28;20102;-72
2023/05/25 02:41:52;;;;;;;;;;;;;;;8.06;78.62;96783.81;5087544;28;19954;-80
2023/05/25 02:44:18;;;;;;;;;;;;;;;8.00;80.35;96784.59;5068991;28;19969;-73
2023/05/25 02:46:44;;;;;;;;;;;;;;;7.96;81.66;96792.03;5086723;28;19949;-80
2023/05/25 02:49:10;;;;;;;;;;;;;;;7.93;78.97;96787.16;5087457;28;19942;-81
2023/05/25 02:51:36;;;;;;;;;;;;;;;7.91;80.44;96792.56;5086634;28;19940;-80
2023/05/25 02:54:02;;;;;;;;;;;;;;;7.91;81.80;96800.41;5086903;28;20023;-81
2023/05/25 02:56:28;;;;;;;;;;;;;;;7.92;82.42;96801.22;5086203;28;20236;-81
2023/05/25 02:58:54;;;;;;;;;;;;;;;7.90;81.40;96790.16;5086062;28;19950;-80
2023/05/25 03:01:20;;;;;;;;;;;;;;;7.87;82.16;96796.59;5086557;28;19946;-73
2023/05/25 03:03:46;;;;;;;;;;;;;;;7.87;80.92;96783.53;5085171;28;19970;-77
2023/05/25 03:06:13;;;;;;;;;;;;;;;7.89;82.23;96791.16;5085310;28;20263;-77
2023/05/25 03:08:39;;;;;;;;;;;;;;;7.89;81.31;96789.34;5086277;28;20133;-78
2023/05/25 03:11:05;;;;;;;;;;;;;;;7.86;82.00;96787.13;5086271;28;19948;-77
2023/05/25 03:13:31;;;;;;;;;;;;;;;7.84;82.98;96796.16;5085898;28;19984;-78
2023/05/25 03:15:57;;;;;;;;;;;;;;;7.80;82.64;96793.13;5086710;28;19937;-77
2023/05/25 03:18:23;;;;;;;;;;;;;;;7.77;82.76;96806.56;5085948;28;20298;-77
2023/05/25 03:20:48;;;;;;;;;;;;;;;7.75;82.10;96786.84;5086978;28;19946;-73
2023/05/25 03:23:15;;;;;;;;;;;;;;;7.72;81.79;96795.88;5085428;28;19974;-75
2023/05/25 03:25:41;;;;;;;;;;;;;;;7.68;80.82;96795.44;5085685;28;20208;-75
2023/05/25 03:28:07;;;;;;;;;;;;;;;7.67;83.42;96813.91;5085065;28;19947;-74
2023/05/25 03:30:32;;;;;;;;;;;;;;;7.65;83.83;96815.91;5084796;28;19955;-75
2023/05/25 03:32:58;;;;;;;;;;;;;;;7.63;83.39;96807.47;5086460;28;19942;-75
2023/05/25 03:35:24;;;;;;;;;;;;;;;7.60;81.91;96806.03;5084636;28;20300;-75
2023/05/25 03:37:50;;;;;;;;;;;;;;;7.57;83.87;96816.84;5086622;28;19974;-78
2023/05/25 03:40:16;;;;;;;;;;;;;;;7.56;85.25;96825.69;5086298;28;19957;-72
2023/05/25 03:42:42;;;;;;;;;;;;;;;7.52;81.43;96804.38;5085606;28;20301;-77
2023/05/25 03:45:08;;;;;;;;;;;;;;;7.50;84.20;96813.41;5085095;28;19941;-77
2023/05/25 03:47:35;;;;;;;;;;;;;;;7.47;83.16;96809.34;5068023;28;19945;-78
2023/05/25 03:50:01;;;;;;;;;;;;;;;7.46;81.71;96796.50;5085551;28;20147;-77
2023/05/25 03:52:27;;;;;;;;;;;;;;;7.45;83.03;96805.31;5085421;28;19945;-77
2023/05/25 03:54:53;;;;;;;;;;;;;;;7.45;83.04;96803.50;5084272;28;19955;-77
2023/05/25 03:57:19;;;;;;;;;;;;;;;7.46;81.89;96791.28;5086156;28;19936;-74
2023/05/25 03:59:45;;;;;;;;;;;;;;;7.45;80.89;96792.25;5067591;28;20007;-77
2023/05/25 04:02:11;;;;;;;;;;;;;;;7.44;82.75;96801.09;5084511;28;19964;-77
2023/05/25 04:04:40;;;;;;;;;;;;;;;7.44;83.39;96809.72;5068199;28;19994;-77
2023/05/25 04:07:06;;;;;;;;;;;;;;;7.44;83.66;96809.72;5068123;28;20132;-76
2023/05/25 04:09:32;;;;;;;;;;;;;;;7.43;82.90;96804.69;5084746;28;20223;-77
2023/05/25 04:11:58;;;;;;;;;;;;;;;7.43;83.01;96802.91;5067282;28;19984;-76
2023/05/25 04:14:24;;;;;;;;;;;;;;;7.45;83.27;96811.31;5084475;28;19996;-72
2023/05/25 04:16:50;;;;;;;;;;;;;;;7.46;82.79;96812.16;5084267;28;19989;-75
2023/05/25 04:19:16;;;;;;;;;;;;;;;7.50;83.49;96805.56;5083985;28;19967;-77
2023/05/25 04:21:42;;;;;;;;;;;;;;;7.52;83.60;96808.78;5084331;28;19945;-77
2023/05/25 04:24:08;;;;;;;;;;;;;;;7.52;85.05;96817.44;5083698;28;19958;-77
2023/05/25 04:26:34;;;;;;;;;;;;;;;7.51;82.64;96805.34;5085321;28;19966;-77
2023/05/25 04:29:01;;;;;;;;;;;;;;;7.52;84.15;96807.00;5083673;28;20129;-77
2023/05/25 04:31:27;;;;;;;;;;;;;;;7.55;84.57;96813.63;5067725;28;19946;-77
2023/05/25 04:33:54;;;;;;;;;;;;;;;7.62;84.38;96811.06;5084398;28;20124;-73
2023/05/25 04:36:21;;;;;;;;;;;;;;;7.70;82.31;96796.06;5066730;28;19951;-72
2023/05/25 04:38:47;;;;;;;;;;;;;;;7.81;82.84;96801.75;5084195;28;19945;-72
2023/05/25 04:41:13;;;;;;;;;;;;;;;7.93;83.77;96808.84;5084549;28;19945;-72
2023/05/25 04:43:39;;;;;;;;;;;;;;;8.04;81.72;96794.47;5084055;28;19959;-73
2023/05/25 04:46:06;;;;;;;;;;;;;;;8.10;82.77;96790.25;5084107;28;20040;-72
2023/05/25 04:48:33;;;;;;;;;;;;;;;8.18;80.91;96784.09;5083897;28;19935;-73
2023/05/25 04:51:01;;;;;;;;;;;;;;;8.23;83.43;96795.56;5084376;28;20167;-77
2023/05/25 04:53:28;;;;;;;;;;;;;;;8.31;82.83;96794.59;5066544;28;19947;-69
2023/05/25 04:55:54;;;;;;;;;;;;;;;8.41;81.82;96786.41;5083278;28;19943;-70
2023/05/25 04:58:23;;;;;;;;;;;;;;;8.51;81.17;96790.28;5083186;28;19937;-71
2023/05/25 05:00:49;;;;;;;;;;;;;;;8.62;82.37;96796.75;5084247;28;19934;-70
2023/05/25 05:03:15;;;;;;;;;;;;;;;8.76;81.80;96791.53;5084736;28;19996;-70
2023/05/25 05:05:42;;;;;;;;;;;;;;;8.89;80.55;96799.44;5084178;28;20026;-70
2023/05/25 05:08:08;;;;;;;;;;;;;;;9.00;81.51;96805.88;5083161;28;19955;-69
2023/05/25 05:10:34;;;;;;;;;;;;;;;9.10;80.33;96795.84;5084478;28;20226;-78
2023/05/25 05:13:00;;;;;;;;;;;;;;;9.19;79.90;96792.03;5084130;28;19944;-77
2023/05/25 05:15:25;;;;;;;;;;;;;;;9.34;80.59;96795.28;5066271;28;19951;-77
2023/05/25 05:17:52;;;;;;;;;;;;;;;9.51;80.50;96803.53;5066528;28;19956;-77
2023/05/25 05:20:18;;;;;;;;;;;;;;;9.71;79.60;96807.94;5066015;28;20154;-77
2023/05/25 05:22:44;;;;;;;;;;;;;;;9.84;78.57;96794.00;5083954;28;19962;-77
2023/05/25 05:25:10;;;;;;;;;;;;;;;9.95;78.91;96809.91;5066595;28;19938;-77
2023/05/25 05:27:36;;;;;;;;;;;;;;;10.13;78.20;96811.88;5066885;28;19953;-78
2023/05/25 05:30:02;;;;;;;;;;;;;;;10.28;77.34;96808.22;5084292;28;19937;-77
2023/05/25 05:32:28;;;;;;;;;;;;;;;10.41;77.51;96808.19;5083948;28;20226;-77
2023/05/25 05:34:54;;;;;;;;;;;;;;;10.59;77.07;96817.22;5066131;28;19941;-77
2023/05/25 05:37:20;;;;;;;;;;;;;;;10.77;77.10;96817.31;5087034;28;19959;-77
2023/05/25 05:39:46;;;;;;;;;;;;;;;10.88;76.23;96803.53;5087655;28;20154;-76
2023/05/25 05:42:12;;;;;;;;;;;;;;;10.99;75.73;96802.06;5070039;28;20011;-78
2023/05/25 05:44:37;;;;;;;;;;;;;;;11.10;75.23;96806.63;5070130;28;19941;-77
2023/05/25 05:47:03;;;;;;;;;;;;;;;11.24;74.64;96799.47;5070767;28;19940;-70
2023/05/25 05:49:29;;;;;;;;;;;;;;;11.37;74.08;96798.56;5087367;28;19945;-77
2023/05/25 05:51:56;;;;;;;;;;;;;;;11.54;74.97;96809.34;5086688;28;19939;-78
2023/05/25 05:54:21;;;;;;;;;;;;;;;11.65;73.10;96803.38;5088470;28;20114;-79
2023/05/25 05:56:48;;;;;;;;;;;;;;;11.80;73.77;96805.69;5087344;28;19949;-78
2023/05/25 05:59:14;;;;;;;;;;;;;;;11.94;73.55;96820.31;5086838;28;19937;-77
2023/05/25 06:01:41;;;;;;;;;;;;;;;12.10;72.25;96805.03;5087580;28;19979;-78
2023/05/25 06:04:07;;;;;;;;;;;;;;;12.17;72.06;96801.28;5088125;28;19955;-77
2023/05/25 06:06:33;;;;;;;;;;;;;;;12.22;72.75;96811.16;5086979;28;19938;-76
2023/05/25 06:09:02;;;;;;;;;;;;;;;12.24;71.97;96822.28;5086372;28;19948;-77
2023/05/25 06:11:28;;;;;;;;;;;;;;;12.38;72.43;96821.09;5086849;28;19940;-77
2023/05/25 06:13:54;;;;;;;;;;;;;;;12.55;71.26;96812.59;5086203;28;19943;-78
2023/05/25 06:16:20;;;;;;;;;;;;;;;12.66;71.67;96805.78;5086949;28;19940;-76
2023/05/25 06:18:45;;;;;;;;;;;;;;;12.50;70.86;96818.53;5069215;28;19976;-77
2023/05/25 06:21:11;;;;;;;;;;;;;;;12.17;71.31;96819.69;5070211;28;19966;-79
2023/05/25 06:23:37;;;;;;;;;;;;;;;11.86;72.43;96838.97;5069274;28;19997;-79
2023/05/25 06:26:04;;;;;;;;;;;;;;;11.59;72.81;96838.41;5086832;28;20168;-76
2023/05/25 06:28:30;;;;;;;;;;;;;;;11.35;74.26;96855.75;5086648;28;19945;-77
2023/05/25 06:30:55;;;;;;;;;;;;;;;11.17;74.50;96861.69;5086363;28;19947;-77
2023/05/25 06:33:22;;;;;;;;;;;;;;;11.02;75.79;96871.69;5085966;28;19942;-77
2023/05/25 06:35:47;;;;;;;;;;;;;;;10.94;76.10;96875.34;5085863;28;20131;-77
2023/05/25 06:38:13;;;;;;;;;;;;;;;10.88;75.92;96878.84;5087448;28;19937;-77
2023/05/25 06:40:39;;;;;;;;;;;;;;;10.88;77.84;96889.34;5085706;28;20186;-77
2023/05/25 06:43:05;;;;;;;;;;;;;;;11.04;76.68;96875.72;5086354;28;20144;-77
2023/05/25 06:45:31;;;;;;;;;;;;;;;11.48;75.95;96876.66;5085705;28;19972;-81
2023/05/25 06:47:57;;;;;;;;;;;;;;;11.96;75.82;96864.81;5085994;28;19940;-82
2023/05/25 06:50:23;;;;;;;;;;;;;;;12.22;74.05;96855.03;5087528;28;20001;-81
2023/05/25 06:52:49;;;;;;;;;;;;;;;12.13;73.26;96847.44;5086234;28;19950;-82
2023/05/25 06:55:14;;;;;;;;;;;;;;;12.30;73.71;96847.66;5087145;28;19946;-81
2023/05/25 06:57:40;;;;;;;;;;;;;;;12.61;73.69;96845.13;5085654;28;19947;-81
2023/05/25 07:00:10;;;;;;;;;;;;;;;12.92;72.79;96844.13;5086563;28;19961;-77
2023/05/25 07:02:36;;;;;;;;;;;;;;;13.15;71.19;96836.31;5086488;28;19942;-77
2023/05/25 07:05:04;;;;;;;;;;;;;;;13.30;70.71;96824.59;5086453;28;19937;-73
2023/05/25 07:07:30;;;;;;;;;;;;;;;13.49;70.93;96836.66;5085258;28;19945;-73
2023/05/25 07:09:56;;;;;;;;;;;;;;;13.64;69.44;96822.25;5085808;28;19942;-72
2023/05/25 07:12:22;;;;;;;;;;;;;;;13.70;69.77;96834.50;5085159;28;19947;-75
2023/05/25 07:14:48;;;;;;;;;;;;;;;13.68;69.30;96832.09;5086265;28;19980;-73
2023/05/25 07:17:14;;;;;;;;;;;;;;;13.55;69.81;96845.50;5069071;28;19962;-73
2023/05/25 07:19:42;;;;;;;;;;;;;;;13.41;70.75;96855.41;5084873;28;20011;-75
2023/05/25 07:22:11;;;;;;;;;;;;;;;13.20;70.71;96851.44;5085832;28;19954;-70
2023/05/25 07:24:36;;;;;;;;;;;;;;;12.96;71.63;96863.72;5068885;28;19959;-71
2023/05/25 07:27:02;;;;;;;;;;;;;;;12.78;72.71;96867.97;5086049;28;19942;-70
2023/05/25 07:29:28;;;;;;;;;;;;;;;12.70;73.25;96867.47;5086488;28;19939;-70
2023/05/25 07:31:54;;;;;;;;;;;;;;;12.67;73.14;96873.19;5085909;28;19942;-70
2023/05/25 07:34:20;;;;;;;;;;;;;;;12.66;74.66;96884.72;5084784;28;19933;-70
2023/05/25 07:36:46;;;;;;;;;;;;;;;12.64;74.53;96884.13;5085424;28;20106;-76
2023/05/25 07:39:12;;;;;;;;;;;;;;;12.57;74.46;96887.66;5084634;28;19947;-72
2023/05/25 07:41:38;;;;;;;;;;;;;;;12.53;74.27;96886.47;5085990;28;19986;-76
2023/05/25 07:44:04;;;;;;;;;;;;;;;12.49;75.13;96889.78;5084434;28;19963;-75
2023/05/25 07:46:30;;;;;;;;;;;;;;;12.50;75.00;96904.53;5086180;28;19937;-75
2023/05/25 07:48:58;;;;;;;;;;;;;;;12.57;75.34;96911.31;5086366;28;20003;-75
2023/05/25 07:51:27;;;;;;;;;;;;;;;12.71;75.95;96906.75;5085767;28;20127;-75
2023/05/25 07:53:55;;;;;;;;;;;;;;;12.91;74.94;96903.06;5086271;28;20101;-76
2023/05/25 07:56:21;;;;;;;;;;;;;;;13.14;74.58;96905.00;5085453;28;19950;-76
2023/05/25 07:58:47;;;;;;;;;;;;;;;13.43;73.96;96887.63;5083634;28;19945;-73
2023/05/25 08:01:14;;;;;;;;;;;;;;;13.68;72.13;96876.09;5068183;28;19942;-73
2023/05/25 08:03:40;;;;;;;;;;;;;;;13.89;71.99;96882.66;5084028;28;19962;-72
2023/05/25 08:06:06;;;;;;;;;;;;;;;14.14;71.49;96877.97;5084868;28;19956;-72
2023/05/25 08:08:33;;;;;;;;;;;;;;;14.44;71.13;96878.88;5085195;28;20225;-73
2023/05/25 08:11:00;;;;;;;;;;;;;;;14.73;69.88;96870.00;5085141;28;19949;-73
2023/05/25 08:13:26;;;;;;;;;;;;;;;14.87;69.30;96856.56;5085359;28;20313;-73
2023/05/25 08:15:51;;;;;;;;;;;;;;;14.97;68.48;96862.00;5084587;28;19948;-73
2023/05/25 08:18:18;;;;;;;;;;;;;;;15.00;66.66;96851.00;5083634;28;19959;-79
2023/05/25 08:20:44;;;;;;;;;;;;;;;15.08;69.20;96877.03;5067927;28;19944;-79
2023/05/25 08:23:10;;;;;;;;;;;;;;;15.16;67.46;96863.44;5067805;28;19970;-79
2023/05/25 08:25:36;;;;;;;;;;;;;;;15.35;68.62;96873.78;5084171;28;19948;-80
2023/05/25 08:28:02;;;;;;;;;;;;;;;15.59;68.82;96877.91;5084494;28;20233;-79
2023/05/25 08:30:29;;;;;;;;;;;;;;;15.76;66.55;96869.22;5084782;28;19942;-78
2023/05/25 08:32:55;;;;;;;;;;;;;;;15.85;66.43;96874.91;5084387;28;20215;-73
2023/05/25 08:35:21;;;;;;;;;;;;;;;15.88;66.88;96869.97;5066971;28;19945;-77
2023/05/25 08:37:46;;;;;;;;;;;;;;;15.98;66.87;96880.69;5084607;28;19947;-78
2023/05/25 08:40:17;;;;;;;;;;;;;;;16.07;65.77;96867.84;5084485;28;19977;-77
2023/05/25 08:42:43;;;;;;;;;;;;;;;16.09;66.65;96880.84;5084233;28;19944;-77
2023/05/25 08:45:10;;;;;;;;;;;;;;;15.96;66.77;96882.78;5084067;28;19944;-76
2023/05/25 08:47:39;;;;;;;;;;;;;;;15.74;66.51;96893.25;5083305;28;19949;-78
2023/05/25 08:50:07;;;;;;;;;;;;;;;15.77;67.42;96889.31;5084481;28;19938;-80
2023/05/25 08:52:35;;;;;;;;;;;;;;;16.01;67.01;96882.06;5083831;28;19943;-77
2023/05/25 08:55:05;;;;;;;;;;;;;;;16.23;66.22;96879.44;5083395;28;19937;-71
2023/05/25 08:57:35;;;;;;;;;;;;;;;16.39;66.28;96873.31;5067233;28;19951;-71
2023/05/25 09:00:06;;;;;;;;;;;;;;;16.55;66.45;96874.34;5083893;28;19952;-71
2023/05/25 09:02:35;;;;;;;;;;;;;;;16.58;65.26;96873.84;5067530;28;20239;-71
2023/05/25 09:05:01;;;;;;;;;;;;;;;16.59;66.02;96875.44;5083159;28;20147;-70
2023/05/25 09:07:28;;;;;;;;;;;;;;;16.62;66.56;96874.94;5083872;28;20219;-71
2023/05/25 09:09:54;;;;;;;;;;;;;;;16.78;66.56;96868.00;5083929;28;19937;-73
2023/05/25 09:12:21;;;;;;;;;;;;;;;16.97;65.35;96878.31;5066392;28;20233;-71
2023/05/25 09:14:47;;;;;;;;;;;;;;;17.07;64.84;96873.09;5083838;28;19942;-71
2023/05/25 09:17:13;;;;;;;;;;;;;;;16.96;65.76;96876.69;5082917;28;19968;-71
2023/05/25 09:19:39;;;;;;;;;;;;;;;16.84;66.01;96882.94;5084132;28;19975;-71
2023/05/25 09:22:07;;;;;;;;;;;;;;;16.98;66.84;96890.50;5082599;28;20316;-71
2023/05/25 09:24:33;;;;;;;;;;;;;;;16.95;66.17;96883.84;5084493;28;19964;-70
2023/05/25 09:26:58;;;;;;;;;;;;;;;16.79;65.51;96882.84;5083976;28;19982;-80
2023/05/25 09:29:25;;;;;;;;;;;;;;;16.77;65.95;96889.44;5083718;28;20136;-75
2023/05/25 09:31:51;;;;;;;;;;;;;;;16.96;67.28;96897.91;5083745;28;20235;-78
2023/05/25 09:34:18;;;;;;;;;;;;;;;17.25;67.13;96896.63;5083935;28;19979;-78
2023/05/25 09:36:44;;;;;;;;;;;;;;;17.63;66.02;96896.72;5084739;28;20100;-77
2023/05/25 09:39:11;;;;;;;;;;;;;;;17.92;64.38;96885.88;5083879;28;19944;-77
2023/05/25 09:41:39;;;;;;;;;;;;;;;17.95;63.69;96875.53;5066758;28;19940;-78
2023/05/25 09:44:05;;;;;;;;;;;;;;;17.87;63.84;96899.91;5083772;28;19953;-78
2023/05/25 09:46:35;;;;;;;;;;;;;;;17.67;62.94;96897.03;5084366;28;20113;-71
2023/05/25 09:49:02;;;;;;;;;;;;;;;17.48;64.01;96894.75;5083804;28;19948;-77
2023/05/25 09:51:31;;;;;;;;;;;;;;;17.39;64.19;96901.56;5083780;28;19937;-77
2023/05/25 09:53:59;;;;;;;;;;;;;;;17.25;64.66;96903.78;5083398;28;19941;-77
2023/05/25 09:56:26;;;;;;;;;;;;;;;17.19;65.04;96910.88;5083701;28;19940;-76
2023/05/25 09:58:52;;;;;;;;;;;;;;;17.18;65.52;96906.63;5083480;28;20209;-76
2023/05/25 10:01:18;;;;;;;;;;;;;;;17.20;65.02;96909.03;5065710;28;19961;-77
2023/05/25 10:03:47;;;;;;;;;;;;;;;17.17;65.24;96912.97;5082459;28;19960;-81
2023/05/25 10:06:16;;;;;;;;;;;;;;;17.23;65.90;96908.53;5083312;28;19945;-71
2023/05/25 10:08:47;;;;;;;;;;;;;;;17.27;64.00;96895.59;5065769;28;19943;-82
2023/05/25 10:11:13;;;;;;;;;;;;;;;17.29;65.49;96901.44;5083735;28;19944;-82
2023/05/25 10:13:40;;;;;;;;;;;;;;;17.23;64.08;96898.72;5083270;28;19951;-83
2023/05/25 10:16:08;;;;;;;;;;;;;;;17.35;65.30;96914.50;5083842;28;19945;-82
2023/05/25 10:18:36;;;;;;;;;;;;;;;17.37;64.00;96901.78;5083416;28;19976;-82
2023/05/25 10:21:03;;;;;;;;;;;;;;;17.48;65.64;96923.13;5084229;28;20217;-82
2023/05/25 10:23:36;;;;;;;;;;;;;;;17.72;63.00;96892.56;5086395;28;19961;-73
2023/05/25 10:26:04;;;;;;;;;;;;;;;17.97;65.26;96910.56;5086822;28;19944;-73
2023/05/25 10:28:34;;;;;;;;;;;;;;;18.30;62.30;96895.41;5085888;28;20142;-73
2023/05/25 10:31:01;;;;;;;;;;;;;;;18.56;63.24;96906.19;5070049;28;19942;-73
2023/05/25 10:33:27;;;;;;;;;;;;;;;18.82;63.11;96899.97;5069191;28;20135;-73
2023/05/25 10:35:54;;;;;;;;;;;;;;;18.94;61.27;96898.94;5069083;28;19946;-73
2023/05/25 10:38:21;;;;;;;;;;;;;;;18.89;61.45;96909.56;5069207;28;20124;-73
2023/05/25 10:40:49;;;;;;;;;;;;;;;18.69;60.85;96904.91;5086896;28;19937;-71
2023/05/25 10:43:19;;;;;;;;;;;;;;;18.57;61.29;96911.25;5085689;28;19934;-81
2023/05/25 10:45:45;;;;;;;;;;;;;;;18.77;61.66;96907.06;5087621;28;19936;-76
2023/05/25 10:48:11;;;;;;;;;;;;;;;19.04;59.18;96893.66;5085638;28;19937;-76
2023/05/25 10:50:37;;;;;;;;;;;;;;;19.31;61.13;96912.09;5086336;28;20129;-77
2023/05/25 10:53:07;;;;;;;;;;;;;;;19.64;60.74;96910.03;5086675;28;20244;-77
2023/05/25 10:55:42;;;;;;;;;;;;;;;19.84;59.86;96898.63;5086538;28;20223;-77
2023/05/25 10:58:15;;;;;;;;;;;;;;;19.72;59.08;96895.41;5086600;28;19941;-77
2023/05/25 11:00:41;;;;;;;;;;;;;;;19.43;59.46;96911.84;5086528;28;19938;-79
2023/05/25 11:03:07;;;;;;;;;;;;;;;19.25;60.00;96911.28;5087279;28;19934;-77
2023/05/25 11:05:34;;;;;;;;;;;;;;;19.16;58.54;96899.56;5086249;28;19978;-78
2023/05/25 11:08:01;;;;;;;;;;;;;;;19.15;61.06;96911.25;5085282;28;20252;-79
2023/05/25 11:10:45;;;;;;;;;;;;;;;19.18;60.13;96908.06;5085893;28;19949;-78
2023/05/25 11:13:29;;;;;;;;;;;;;;;19.14;57.59;96903.53;5085187;28;19968;-78
2023/05/25 11:16:14;;;;;;;;;;;;;;;19.03;60.43;96926.63;5085116;28;20224;-77
2023/05/25 11:18:40;;;;;;;;;;;;;;;18.95;60.76;96932.44;5086332;28;19978;-77
2023/05/25 11:21:13;;;;;;;;;;;;;;;18.89;61.59;96920.19;5085022;28;19951;-71
2023/05/25 11:23:53;;;;;;;;;;;;;;;18.90;61.54;96914.63;5085414;28;19953;-71
2023/05/25 11:26:22;;;;;;;;;;;;;;;18.98;62.46;96922.09;5086894;28;19949;-71
2023/05/25 11:28:52;;;;;;;;;;;;;;;19.09;62.25;96930.09;5068096;28;19948;-71
2023/05/25 11:31:28;;;;;;;;;;;;;;;19.15;62.06;96929.88;5084846;28;19952;-71
2023/05/25 11:33:56;;;;;;;;;;;;;;;19.12;60.08;96917.09;5084222;28;19933;-71
2023/05/25 11:36:22;;;;;;;;;;;;;;;19.10;60.19;96902.47;5084332;28;19937;-83
2023/05/25 11:38:48;;;;;;;;;;;;;;;19.08;61.14;96920.53;5067926;28;19937;-77
2023/05/25 11:41:15;;;;;;;;;;;;;;;19.06;61.79;96918.13;5068275;28;20225;-84
2023/05/25 11:43:42;;;;;;;;;;;;;;;19.09;61.72;96920.28;5084180;28;19953;-84
2023/05/25 11:46:09;;;;;;;;;;;;;;;19.14;61.51;96922.16;5084446;28;20239;-83
2023/05/25 11:48:35;;;;;;;;;;;;;;;19.16;60.78;96912.84;5084743;28;20142;-83
2023/05/25 11:51:06;;;;;;;;;;;;;;;19.14;61.12;96909.66;5084660;28;19980;-83
2023/05/25 11:53:32;;;;;;;;;;;;;;;19.11;60.62;96917.34;5083834;28;19933;-84
2023/05/25 11:55:58;;;;;;;;;;;;;;;19.00;58.52;96909.34;5083773;28;20176;-74
2023/05/25 11:58:24;;;;;;;;;;;;;;;19.03;61.91;96929.28;5084507;28;20199;-71
2023/05/25 12:00:50;;;;;;;;;;;;;;;19.21;61.99;96920.03;5066920;28;19939;-71
2023/05/25 12:03:31;;;;;;;;;;;;;;;19.29;59.73;96910.75;5082177;28;20241;-71
2023/05/25 12:05:57;;;;;;;;;;;;;;;19.35;60.26;96910.50;5084781;28;19949;-72
2023/05/25 12:08:32;;;;;;;;;;;;;;;19.46;60.53;96914.81;5085239;28;19945;-71
2023/05/25 12:10:58;;;;;;;;;;;;;;;19.48;60.39;96911.84;5085056;28;19934;-72
2023/05/25 12:13:25;;;;;;;;;;;;;;;19.38;60.07;96910.00;5067550;28;19943;-73
2023/05/25 12:15:51;;;;;;;;;;;;;;;19.32;60.14;96912.88;5084534;28;19934;-71
2023/05/25 12:18:17;;;;;;;;;;;;;;;19.25;60.29;96908.59;5083573;28;19962;-72
2023/05/25 12:20:43;;;;;;;;;;;;;;;19.29;58.60;96900.91;5085352;28;19941;-72
2023/05/25 12:23:09;;;;;;;;;;;;;;;19.35;60.51;96913.16;5084521;28;19947;-71
2023/05/25 12:25:35;;;;;;;;;;;;;;;19.44;60.88;96916.09;5084790;28;19960;-71
2023/05/25 12:28:11;;;;;;;;;;;;;;;19.50;60.92;96915.06;5084510;28;20248;-72
2023/05/25 12:30:37;;;;;;;;;;;;;;;19.61;60.19;96910.53;5084727;28;19938;-71
2023/05/25 12:33:03;;;;;;;;;;;;;;;19.87;60.40;96912.19;5084754;28;19939;-77
2023/05/25 12:35:29;;;;;;;;;;;;;;;19.97;59.05;96903.44;5083687;28;19986;-84
2023/05/25 12:38:10;;;;;;;;;;;;;;;19.96;56.99;96893.03;5084934;28;20228;-83
2023/05/25 12:40:36;;;;;;;;;;;;;;;19.86;59.94;96920.44;5084600;28;19945;-83
2023/05/25 12:43:02;;;;;;;;;;;;;;;19.76;57.23;96901.81;5083553;28;19937;-83
2023/05/25 12:45:28;;;;;;;;;;;;;;;19.81;60.26;96918.59;5083843;28;19997;-84
2023/05/25 12:47:54;;;;;;;;;;;;;;;19.90;59.90;96913.53;5084532;28;19980;-84
2023/05/25 12:50:20;;;;;;;;;;;;;;;19.93;59.23;96902.38;5084246;28;20225;-74